sensor_id;sensor_type;location;lat;lon;timestamp;noise_LAeq;noise_LA_min;noise_LA_max;noise_LA01;noise_LA95
186;Laerm;55473;48.800;9.002;2023-02-03T00:01:56;36.81;33.73;53.10;;
186;Laerm;55473;48.800;9.002;2023-02-03T00:04:37;36.17;33.74;44.47;;
186;Laerm;55473;48.800;9.002;2023-02-03T00:07:28;36.68;33.10;43.45;;
186;Laerm;55473;48.800;9.002;2023-02-03T00:10:21;36.73;34.08;49.44;;
186;Laerm;55473;48.800;9.002;2023-02-03T00:12:58;38.93;35.14;47.08;;
186;Laerm;55473;48.800;9.002;2023-02-03T00:15:39;39.93;36.26;51.51;;
186;Laerm;55473;48.800;9.002;2023-02-03T00:18:27;39.51;35.48;47.42;;
186;Laerm;55473;48.800;9.002;2023-02-03T00:21:09;42.51;36.94;48.90;;
186;Laerm;55473;48.800;9.002;2023-02-03T00:23:50;59.80;43.79;67.52;;
186;Laerm;55473;48.800;9.002;2023-02-03T00:26:25;64.30;59.26;68.99;;
186;Laerm;55473;48.800;9.002;2023-02-03T00:29:03;62.86;59.55;67.78;;
186;Laerm;55473;48.800;9.002;2023-02-03T00:34:56;55.07;52.40;58.70;;
186;Laerm;55473;48.800;9.002;2023-02-03T00:41:34;60.21;48.29;67.63;;
186;Laerm;55473;48.800;9.002;2023-02-03T00:44:33;41.86;34.48;52.63;;
186;Laerm;55473;48.800;9.002;2023-02-03T00:47:18;36.96;34.43;44.28;;
186;Laerm;55473;48.800;9.002;2023-02-03T00:50:08;38.07;34.17;44.01;;
186;Laerm;55473;48.800;9.002;2023-02-03T00:52:43;37.54;34.16;46.56;;
186;Laerm;55473;48.800;9.002;2023-02-03T00:55:31;37.52;34.16;53.71;;
186;Laerm;55473;48.800;9.002;2023-02-03T00:58:10;36.18;33.55;41.18;;
186;Laerm;55473;48.800;9.002;2023-02-03T01:01:05;36.12;33.90;49.09;;
186;Laerm;55473;48.800;9.002;2023-02-03T01:03:37;37.51;34.06;47.43;;
186;Laerm;55473;48.800;9.002;2023-02-03T01:06:25;36.36;33.99;41.77;;
186;Laerm;55473;48.800;9.002;2023-02-03T01:09:11;36.93;34.27;44.65;;
186;Laerm;55473;48.800;9.002;2023-02-03T01:11:45;36.36;34.25;41.82;;
186;Laerm;55473;48.800;9.002;2023-02-03T01:14:33;36.34;34.09;40.57;;
186;Laerm;55473;48.800;9.002;2023-02-03T01:17:25;37.49;34.73;46.80;;
186;Laerm;55473;48.800;9.002;2023-02-03T01:20:28;37.40;34.65;48.62;;
186;Laerm;55473;48.800;9.002;2023-02-03T01:23:09;36.72;33.64;41.16;;
186;Laerm;55473;48.800;9.002;2023-02-03T01:25:50;37.01;34.18;47.77;;
186;Laerm;55473;48.800;9.002;2023-02-03T01:28:33;37.80;35.17;43.00;;
186;Laerm;55473;48.800;9.002;2023-02-03T01:31:25;37.66;35.02;50.32;;
186;Laerm;55473;48.800;9.002;2023-02-03T01:34:12;42.37;36.19;57.33;;
186;Laerm;55473;48.800;9.002;2023-02-03T01:37:03;43.42;34.96;56.45;;
186;Laerm;55473;48.800;9.002;2023-02-03T01:39:44;40.08;35.22;59.79;;
186;Laerm;55473;48.800;9.002;2023-02-03T01:42:42;39.65;35.59;56.59;;
186;Laerm;55473;48.800;9.002;2023-02-03T01:45:22;41.44;35.85;61.91;;
186;Laerm;55473;48.800;9.002;2023-02-03T01:48:08;44.21;36.06;61.81;;
186;Laerm;55473;48.800;9.002;2023-02-03T01:50:52;39.21;35.49;47.07;;
186;Laerm;55473;48.800;9.002;2023-02-03T01:53:27;38.05;35.11;51.41;;
186;Laerm;55473;48.800;9.002;2023-02-03T01:56:10;42.57;35.15;60.87;;
186;Laerm;55473;48.800;9.002;2023-02-03T01:58:52;38.01;35.15;48.16;;
186;Laerm;55473;48.800;9.002;2023-02-03T02:01:28;38.74;35.47;47.40;;
186;Laerm;55473;48.800;9.002;2023-02-03T02:04:21;39.61;36.06;52.31;;
186;Laerm;55473;48.800;9.002;2023-02-03T02:07:09;44.61;36.15;63.55;;
186;Laerm;55473;48.800;9.002;2023-02-03T02:10:00;40.93;34.92;56.65;;
186;Laerm;55473;48.800;9.002;2023-02-03T02:12:45;41.86;35.13;59.43;;
186;Laerm;55473;48.800;9.002;2023-02-03T02:22:42;44.44;36.48;62.96;;
186;Laerm;55473;48.800;9.002;2023-02-03T02:36:37;36.74;34.35;44.28;;
186;Laerm;55473;48.800;9.002;2023-02-03T02:39:44;37.21;34.69;43.90;;
186;Laerm;55473;48.800;9.002;2023-02-03T02:45:29;37.21;33.88;46.17;;
186;Laerm;55473;48.800;9.002;2023-02-03T02:48:56;36.92;33.71;47.99;;
186;Laerm;55473;48.800;9.002;2023-02-03T02:51:44;36.57;33.88;45.45;;
186;Laerm;55473;48.800;9.002;2023-02-03T02:54:44;36.99;34.33;49.96;;
186;Laerm;55473;48.800;9.002;2023-02-03T02:57:32;36.59;33.90;41.57;;
186;Laerm;55473;48.800;9.002;2023-02-03T03:00:13;39.01;33.88;46.57;;
186;Laerm;55473;48.800;9.002;2023-02-03T03:02:40;41.86;34.11;52.96;;
186;Laerm;55473;48.800;9.002;2023-02-03T03:05:11;39.46;34.32;56.40;;
186;Laerm;55473;48.800;9.002;2023-02-03T03:07:49;40.71;33.90;53.31;;
186;Laerm;55473;48.800;9.002;2023-02-03T03:10:22;36.79;34.46;46.36;;
186;Laerm;55473;48.800;9.002;2023-02-03T03:13:02;37.09;34.66;46.03;;
186;Laerm;55473;48.800;9.002;2023-02-03T03:15:33;56.77;34.42;68.29;;
186;Laerm;55473;48.800;9.002;2023-02-03T03:18:16;38.63;34.43;51.03;;
186;Laerm;55473;48.800;9.002;2023-02-03T03:20:47;36.40;34.30;45.96;;
186;Laerm;55473;48.800;9.002;2023-02-03T03:23:29;36.46;34.60;47.19;;
186;Laerm;55473;48.800;9.002;2023-02-03T03:26:31;37.09;34.49;41.59;;
186;Laerm;55473;48.800;9.002;2023-02-03T03:29:19;37.22;35.03;41.24;;
186;Laerm;55473;48.800;9.002;2023-02-03T03:31:47;43.85;34.21;58.64;;
186;Laerm;55473;48.800;9.002;2023-02-03T03:34:14;46.30;34.82;60.79;;
186;Laerm;55473;48.800;9.002;2023-02-03T03:37:21;37.01;34.16;41.66;;
186;Laerm;55473;48.800;9.002;2023-02-03T03:39:54;37.23;33.58;46.43;;
186;Laerm;55473;48.800;9.002;2023-02-03T03:43:09;39.73;34.28;56.02;;
186;Laerm;55473;48.800;9.002;2023-02-03T03:45:45;37.70;33.47;51.19;;
186;Laerm;55473;48.800;9.002;2023-02-03T03:48:51;45.84;34.29;59.69;;
186;Laerm;55473;48.800;9.002;2023-02-03T03:51:26;39.18;34.55;61.83;;
186;Laerm;55473;48.800;9.002;2023-02-03T03:53:59;40.91;34.98;65.57;;
186;Laerm;55473;48.800;9.002;2023-02-03T03:56:35;37.80;34.15;47.83;;
186;Laerm;55473;48.800;9.002;2023-02-03T03:59:05;42.75;34.00;55.77;;
186;Laerm;55473;48.800;9.002;2023-02-03T04:01:34;39.31;34.67;47.23;;
186;Laerm;55473;48.800;9.002;2023-02-03T04:04:07;54.15;35.20;62.23;;
186;Laerm;55473;48.800;9.002;2023-02-03T04:06:37;38.37;34.41;46.31;;
186;Laerm;55473;48.800;9.002;2023-02-03T04:09:03;38.28;35.26;42.73;;
186;Laerm;55473;48.800;9.002;2023-02-03T04:11:30;39.39;34.70;57.86;;
186;Laerm;55473;48.800;9.002;2023-02-03T04:14:14;46.37;37.79;58.41;;
186;Laerm;55473;48.800;9.002;2023-02-03T04:16:40;43.20;38.46;52.27;;
186;Laerm;55473;48.800;9.002;2023-02-03T04:19:06;49.38;39.27;61.24;;
186;Laerm;55473;48.800;9.002;2023-02-03T04:21:32;41.95;38.33;47.60;;
186;Laerm;55473;48.800;9.002;2023-02-03T04:23:58;42.40;36.91;60.19;;
186;Laerm;55473;48.800;9.002;2023-02-03T04:26:24;42.38;36.66;54.80;;
186;Laerm;55473;48.800;9.002;2023-02-03T04:28:50;47.41;37.95;61.05;;
186;Laerm;55473;48.800;9.002;2023-02-03T04:31:16;47.76;39.39;64.82;;
186;Laerm;55473;48.800;9.002;2023-02-03T04:33:42;48.55;39.43;63.39;;
186;Laerm;55473;48.800;9.002;2023-02-03T04:36:08;41.41;37.53;62.66;;
186;Laerm;55473;48.800;9.002;2023-02-03T04:38:34;43.49;37.67;66.59;;
186;Laerm;55473;48.800;9.002;2023-02-03T04:41:00;43.23;38.20;62.04;;
186;Laerm;55473;48.800;9.002;2023-02-03T04:43:26;41.93;37.57;65.57;;
186;Laerm;55473;48.800;9.002;2023-02-03T04:45:52;45.96;39.88;60.54;;
186;Laerm;55473;48.800;9.002;2023-02-03T04:48:18;48.64;39.17;65.60;;
186;Laerm;55473;48.800;9.002;2023-02-03T04:50:44;42.66;38.44;62.07;;
186;Laerm;55473;48.800;9.002;2023-02-03T04:53:09;43.78;39.41;57.64;;
186;Laerm;55473;48.800;9.002;2023-02-03T04:55:35;43.40;39.51;62.51;;
186;Laerm;55473;48.800;9.002;2023-02-03T04:58:01;44.72;39.79;54.66;;
186;Laerm;55473;48.800;9.002;2023-02-03T05:00:28;46.15;39.96;58.17;;
186;Laerm;55473;48.800;9.002;2023-02-03T05:02:54;44.54;39.32;66.38;;
186;Laerm;55473;48.800;9.002;2023-02-03T05:05:20;47.92;40.47;65.25;;
186;Laerm;55473;48.800;9.002;2023-02-03T05:07:46;45.55;40.72;65.46;;
186;Laerm;55473;48.800;9.002;2023-02-03T05:10:12;44.10;38.73;64.10;;
186;Laerm;55473;48.800;9.002;2023-02-03T05:12:38;44.11;39.10;69.01;;
186;Laerm;55473;48.800;9.002;2023-02-03T05:15:05;46.11;40.03;60.33;;
186;Laerm;55473;48.800;9.002;2023-02-03T05:17:31;48.56;40.98;64.26;;
186;Laerm;55473;48.800;9.002;2023-02-03T05:19:56;45.05;39.04;62.73;;
186;Laerm;55473;48.800;9.002;2023-02-03T05:22:22;43.62;38.97;64.82;;
186;Laerm;55473;48.800;9.002;2023-02-03T05:24:48;45.32;39.95;60.84;;
186;Laerm;55473;48.800;9.002;2023-02-03T05:27:14;45.75;39.63;67.35;;
186;Laerm;55473;48.800;9.002;2023-02-03T05:29:40;46.82;38.69;67.04;;
186;Laerm;55473;48.800;9.002;2023-02-03T05:32:06;47.99;39.90;66.75;;
186;Laerm;55473;48.800;9.002;2023-02-03T05:34:32;48.16;41.09;68.11;;
186;Laerm;55473;48.800;9.002;2023-02-03T05:36:57;43.35;39.80;61.20;;
186;Laerm;55473;48.800;9.002;2023-02-03T05:39:23;44.36;39.05;58.48;;
186;Laerm;55473;48.800;9.002;2023-02-03T05:41:49;45.31;40.01;62.55;;
186;Laerm;55473;48.800;9.002;2023-02-03T05:44:24;47.18;40.56;56.31;;
186;Laerm;55473;48.800;9.002;2023-02-03T05:46:52;46.64;40.61;59.04;;
186;Laerm;55473;48.800;9.002;2023-02-03T05:49:19;49.96;42.15;64.42;;
186;Laerm;55473;48.800;9.002;2023-02-03T05:51:46;45.18;39.98;60.41;;
186;Laerm;55473;48.800;9.002;2023-02-03T05:54:12;55.42;40.65;64.46;;
186;Laerm;55473;48.800;9.002;2023-02-03T05:56:38;46.38;40.50;59.38;;
186;Laerm;55473;48.800;9.002;2023-02-03T05:59:04;46.67;41.31;52.17;;
186;Laerm;55473;48.800;9.002;2023-02-03T06:01:32;48.35;40.71;57.07;;
186;Laerm;55473;48.800;9.002;2023-02-03T06:03:58;50.53;42.00;63.63;;
186;Laerm;55473;48.800;9.002;2023-02-03T06:06:24;47.47;41.06;58.36;;
186;Laerm;55473;48.800;9.002;2023-02-03T06:08:54;44.66;40.53;59.37;;
186;Laerm;55473;48.800;9.002;2023-02-03T06:11:21;45.21;39.94;57.71;;
186;Laerm;55473;48.800;9.002;2023-02-03T06:13:50;47.81;40.97;57.15;;
186;Laerm;55473;48.800;9.002;2023-02-03T06:16:16;50.06;42.99;74.20;;
186;Laerm;55473;48.800;9.002;2023-02-03T06:18:42;55.08;42.68;64.55;;
186;Laerm;55473;48.800;9.002;2023-02-03T06:21:08;53.22;42.01;67.77;;
186;Laerm;55473;48.800;9.002;2023-02-03T06:23:34;46.66;42.31;57.62;;
186;Laerm;55473;48.800;9.002;2023-02-03T06:25:59;52.74;41.82;67.32;;
186;Laerm;55473;48.800;9.002;2023-02-03T06:28:26;53.36;43.08;68.35;;
186;Laerm;55473;48.800;9.002;2023-02-03T06:30:52;54.47;42.53;68.26;;
186;Laerm;55473;48.800;9.002;2023-02-03T06:33:19;52.77;42.26;64.06;;
186;Laerm;55473;48.800;9.002;2023-02-03T06:35:45;49.31;42.72;64.87;;
186;Laerm;55473;48.800;9.002;2023-02-03T06:38:11;50.16;43.47;60.37;;
186;Laerm;55473;48.800;9.002;2023-02-03T06:40:36;48.17;43.72;60.44;;
186;Laerm;55473;48.800;9.002;2023-02-03T06:43:02;49.15;43.68;63.51;;
186;Laerm;55473;48.800;9.002;2023-02-03T06:45:28;47.67;42.57;58.02;;
186;Laerm;55473;48.800;9.002;2023-02-03T06:47:54;50.10;42.15;68.86;;
186;Laerm;55473;48.800;9.002;2023-02-03T06:50:20;49.67;44.19;61.50;;
186;Laerm;55473;48.800;9.002;2023-02-03T06:52:48;50.07;43.03;64.24;;
186;Laerm;55473;48.800;9.002;2023-02-03T06:55:14;47.89;42.70;63.45;;
186;Laerm;55473;48.800;9.002;2023-02-03T06:57:46;47.78;42.40;65.25;;
186;Laerm;55473;48.800;9.002;2023-02-03T07:00:15;49.14;42.53;70.77;;
186;Laerm;55473;48.800;9.002;2023-02-03T07:02:41;50.99;42.49;66.64;;
186;Laerm;55473;48.800;9.002;2023-02-03T07:05:07;49.65;42.70;62.78;;
186;Laerm;55473;48.800;9.002;2023-02-03T07:07:34;47.83;42.98;64.31;;
186;Laerm;55473;48.800;9.002;2023-02-03T07:10:01;52.98;41.99;63.96;;
186;Laerm;55473;48.800;9.002;2023-02-03T07:12:27;46.41;41.01;61.11;;
186;Laerm;55473;48.800;9.002;2023-02-03T07:14:53;48.65;43.04;67.26;;
186;Laerm;55473;48.800;9.002;2023-02-03T07:17:19;52.21;43.52;69.39;;
186;Laerm;55473;48.800;9.002;2023-02-03T07:19:45;48.89;42.27;64.48;;
186;Laerm;55473;48.800;9.002;2023-02-03T07:22:11;51.69;42.15;67.41;;
186;Laerm;55473;48.800;9.002;2023-02-03T07:24:37;49.56;42.53;68.01;;
186;Laerm;55473;48.800;9.002;2023-02-03T07:27:03;47.00;43.21;58.43;;
186;Laerm;55473;48.800;9.002;2023-02-03T07:29:29;49.45;43.15;65.52;;
186;Laerm;55473;48.800;9.002;2023-02-03T07:31:55;47.79;42.94;60.40;;
186;Laerm;55473;48.800;9.002;2023-02-03T07:34:21;49.26;43.55;64.97;;
186;Laerm;55473;48.800;9.002;2023-02-03T07:36:47;49.61;43.16;65.33;;
186;Laerm;55473;48.800;9.002;2023-02-03T07:39:13;49.10;42.85;66.22;;
186;Laerm;55473;48.800;9.002;2023-02-03T07:41:39;47.45;42.23;61.49;;
186;Laerm;55473;48.800;9.002;2023-02-03T07:44:05;48.01;42.00;60.68;;
186;Laerm;55473;48.800;9.002;2023-02-03T07:46:31;48.35;42.84;64.90;;
186;Laerm;55473;48.800;9.002;2023-02-03T07:48:57;51.24;42.42;69.16;;
186;Laerm;55473;48.800;9.002;2023-02-03T07:51:22;47.08;41.73;64.36;;
186;Laerm;55473;48.800;9.002;2023-02-03T07:53:48;48.76;41.21;70.06;;
186;Laerm;55473;48.800;9.002;2023-02-03T07:56:14;48.42;41.25;63.10;;
186;Laerm;55473;48.800;9.002;2023-02-03T07:58:40;47.48;39.87;60.41;;
186;Laerm;55473;48.800;9.002;2023-02-03T08:01:15;48.78;41.62;62.77;;
186;Laerm;55473;48.800;9.002;2023-02-03T08:03:42;48.94;41.58;59.87;;
186;Laerm;55473;48.800;9.002;2023-02-03T08:06:08;48.49;42.91;63.52;;
186;Laerm;55473;48.800;9.002;2023-02-03T08:08:34;48.06;41.37;65.56;;
186;Laerm;55473;48.800;9.002;2023-02-03T08:11:01;48.45;41.88;63.94;;
186;Laerm;55473;48.800;9.002;2023-02-03T08:13:27;47.96;41.68;62.50;;
186;Laerm;55473;48.800;9.002;2023-02-03T08:15:53;49.85;42.63;64.65;;
186;Laerm;55473;48.800;9.002;2023-02-03T08:18:19;50.30;43.84;61.13;;
186;Laerm;55473;48.800;9.002;2023-02-03T08:20:48;47.81;41.77;63.08;;
186;Laerm;55473;48.800;9.002;2023-02-03T08:23:15;47.52;41.77;60.52;;
186;Laerm;55473;48.800;9.002;2023-02-03T08:25:41;56.99;42.89;65.73;;
186;Laerm;55473;48.800;9.002;2023-02-03T08:28:07;49.30;43.61;67.93;;
186;Laerm;55473;48.800;9.002;2023-02-03T08:30:33;49.44;43.44;64.65;;
186;Laerm;55473;48.800;9.002;2023-02-03T08:32:59;48.15;42.12;66.65;;
186;Laerm;55473;48.800;9.002;2023-02-03T08:35:24;50.45;42.37;65.06;;
186;Laerm;55473;48.800;9.002;2023-02-03T08:37:50;52.31;41.75;70.19;;
186;Laerm;55473;48.800;9.002;2023-02-03T08:40:16;47.59;42.50;63.88;;
186;Laerm;55473;48.800;9.002;2023-02-03T08:42:42;53.54;42.38;70.61;;
186;Laerm;55473;48.800;9.002;2023-02-03T08:45:08;54.75;42.28;69.25;;
186;Laerm;55473;48.800;9.002;2023-02-03T08:47:35;49.12;42.66;60.06;;
186;Laerm;55473;48.800;9.002;2023-02-03T08:50:05;50.03;43.26;63.28;;
186;Laerm;55473;48.800;9.002;2023-02-03T08:52:31;47.39;42.68;64.74;;
186;Laerm;55473;48.800;9.002;2023-02-03T08:54:56;47.39;40.77;63.88;;
186;Laerm;55473;48.800;9.002;2023-02-03T08:57:22;48.40;41.08;67.80;;
186;Laerm;55473;48.800;9.002;2023-02-03T08:59:48;49.79;43.72;66.24;;
186;Laerm;55473;48.800;9.002;2023-02-03T09:02:18;56.83;44.69;73.16;;
186;Laerm;55473;48.800;9.002;2023-02-03T09:04:45;50.27;42.96;65.50;;
186;Laerm;55473;48.800;9.002;2023-02-03T09:07:12;49.31;42.75;65.55;;
186;Laerm;55473;48.800;9.002;2023-02-03T09:09:38;46.96;42.05;63.10;;
186;Laerm;55473;48.800;9.002;2023-02-03T09:12:07;50.19;43.05;69.60;;
186;Laerm;55473;48.800;9.002;2023-02-03T09:14:35;48.58;42.16;65.68;;
186;Laerm;55473;48.800;9.002;2023-02-03T09:17:03;52.06;41.42;71.61;;
186;Laerm;55473;48.800;9.002;2023-02-03T09:19:30;49.14;42.20;68.00;;
186;Laerm;55473;48.800;9.002;2023-02-03T09:21:56;47.33;40.99;60.35;;
186;Laerm;55473;48.800;9.002;2023-02-03T09:24:23;47.73;41.39;68.18;;
186;Laerm;55473;48.800;9.002;2023-02-03T09:26:49;49.70;41.19;62.94;;
186;Laerm;55473;48.800;9.002;2023-02-03T09:29:15;49.90;42.37;64.71;;
186;Laerm;55473;48.800;9.002;2023-02-03T09:31:41;49.25;42.93;66.74;;
186;Laerm;55473;48.800;9.002;2023-02-03T09:34:08;57.42;43.26;71.19;;
186;Laerm;55473;48.800;9.002;2023-02-03T09:36:34;58.91;41.45;74.92;;
186;Laerm;55473;48.800;9.002;2023-02-03T09:39:00;56.69;41.55;65.75;;
186;Laerm;55473;48.800;9.002;2023-02-03T09:44:43;50.20;43.07;61.03;;
186;Laerm;55473;48.800;9.002;2023-02-03T09:47:20;52.31;44.67;73.33;;
186;Laerm;55473;48.800;9.002;2023-02-03T09:49:57;48.74;42.93;57.57;;
186;Laerm;55473;48.800;9.002;2023-02-03T09:52:53;47.13;42.87;55.61;;
186;Laerm;55473;48.800;9.002;2023-02-03T09:55:36;47.91;42.41;60.50;;
186;Laerm;55473;48.800;9.002;2023-02-03T09:58:16;48.38;41.17;65.84;;
186;Laerm;55473;48.800;9.002;2023-02-03T10:00:59;50.21;42.71;67.89;;
186;Laerm;55473;48.800;9.002;2023-02-03T10:03:36;53.07;43.35;63.37;;
186;Laerm;55473;48.800;9.002;2023-02-03T10:06:37;47.15;41.70;67.16;;
186;Laerm;55473;48.800;9.002;2023-02-03T10:09:37;47.24;40.96;62.02;;
186;Laerm;55473;48.800;9.002;2023-02-03T10:12:53;48.38;42.56;65.58;;
186;Laerm;55473;48.800;9.002;2023-02-03T10:18:18;50.96;44.55;60.14;;
186;Laerm;55473;48.800;9.002;2023-02-03T10:20:50;51.21;42.77;68.29;;
186;Laerm;55473;48.800;9.002;2023-02-03T10:23:28;48.78;42.10;66.35;;
186;Laerm;55473;48.800;9.002;2023-02-03T10:25:58;47.50;42.25;61.57;;
186;Laerm;55473;48.800;9.002;2023-02-03T10:28:41;47.47;41.58;68.43;;
186;Laerm;55473;48.800;9.002;2023-02-03T10:31:20;50.06;41.69;69.87;;
186;Laerm;55473;48.800;9.002;2023-02-03T10:34:08;50.74;40.92;67.41;;
186;Laerm;55473;48.800;9.002;2023-02-03T10:39:26;46.38;41.46;55.14;;
186;Laerm;55473;48.800;9.002;2023-02-03T10:41:54;48.04;42.63;60.55;;
186;Laerm;55473;48.800;9.002;2023-02-03T10:44:40;46.64;41.72;57.48;;
186;Laerm;55473;48.800;9.002;2023-02-03T10:50:13;47.99;42.48;64.40;;
186;Laerm;55473;48.800;9.002;2023-02-03T10:52:40;48.20;42.96;64.92;;
186;Laerm;55473;48.800;9.002;2023-02-03T10:57:52;53.71;43.26;70.00;;
186;Laerm;55473;48.800;9.002;2023-02-03T11:00:26;50.38;43.34;68.71;;
186;Laerm;55473;48.800;9.002;2023-02-03T11:03:01;50.06;45.18;60.07;;
186;Laerm;55473;48.800;9.002;2023-02-03T11:05:28;48.14;43.35;62.25;;
186;Laerm;55473;48.800;9.002;2023-02-03T11:07:54;54.93;43.55;62.93;;
186;Laerm;55473;48.800;9.002;2023-02-03T11:13:30;59.85;43.87;83.69;;
186;Laerm;55473;48.800;9.002;2023-02-03T11:16:14;50.72;42.41;69.41;;
186;Laerm;55473;48.800;9.002;2023-02-03T11:19:00;49.97;43.09;63.01;;
186;Laerm;55473;48.800;9.002;2023-02-03T11:24:23;49.25;42.13;62.48;;
186;Laerm;55473;48.800;9.002;2023-02-03T11:27:10;48.50;42.21;61.80;;
186;Laerm;55473;48.800;9.002;2023-02-03T11:29:43;53.34;41.68;78.91;;
186;Laerm;55473;48.800;9.002;2023-02-03T11:32:23;51.02;42.67;70.24;;
186;Laerm;55473;48.800;9.002;2023-02-03T11:35:02;56.99;43.09;81.87;;
186;Laerm;55473;48.800;9.002;2023-02-03T11:37:41;49.93;42.03;64.23;;
186;Laerm;55473;48.800;9.002;2023-02-03T11:42:39;46.18;41.88;60.90;;
186;Laerm;55473;48.800;9.002;2023-02-03T11:59:48;54.23;44.79;69.82;;
186;Laerm;55473;48.800;9.002;2023-02-03T12:02:59;52.53;44.24;73.35;;
186;Laerm;55473;48.800;9.002;2023-02-03T12:14:49;52.79;42.03;75.32;;
186;Laerm;55473;48.800;9.002;2023-02-03T12:22:46;53.36;41.75;70.17;;
186;Laerm;55473;48.800;9.002;2023-02-03T12:25:40;58.77;42.34;80.27;;
186;Laerm;55473;48.800;9.002;2023-02-03T12:28:55;47.64;42.40;58.79;;
186;Laerm;55473;48.800;9.002;2023-02-03T12:31:37;50.05;43.30;67.13;;
186;Laerm;55473;48.800;9.002;2023-02-03T12:37:00;51.48;43.18;69.28;;
186;Laerm;55473;48.800;9.002;2023-02-03T12:45:00;47.82;42.60;60.25;;
186;Laerm;55473;48.800;9.002;2023-02-03T12:50:21;50.50;42.10;78.27;;
186;Laerm;55473;48.800;9.002;2023-02-03T12:55:36;50.06;42.65;69.34;;
186;Laerm;55473;48.800;9.002;2023-02-03T12:58:24;48.12;42.55;61.78;;
186;Laerm;55473;48.800;9.002;2023-02-03T13:00:59;47.13;41.66;58.88;;
186;Laerm;55473;48.800;9.002;2023-02-03T13:03:40;47.28;41.78;61.66;;
186;Laerm;55473;48.800;9.002;2023-02-03T13:06:50;52.67;41.54;67.56;;
186;Laerm;55473;48.800;9.002;2023-02-03T13:09:43;50.88;42.11;66.45;;
186;Laerm;55473;48.800;9.002;2023-02-03T13:12:44;49.33;43.04;60.32;;
186;Laerm;55473;48.800;9.002;2023-02-03T13:18:06;52.75;43.52;73.11;;
186;Laerm;55473;48.800;9.002;2023-02-03T13:20:36;49.92;43.48;63.44;;
186;Laerm;55473;48.800;9.002;2023-02-03T13:23:12;52.97;43.82;71.80;;
186;Laerm;55473;48.800;9.002;2023-02-03T13:38:07;46.89;41.25;58.93;;
186;Laerm;55473;48.800;9.002;2023-02-03T13:41:07;48.89;42.18;64.00;;
186;Laerm;55473;48.800;9.002;2023-02-03T13:43:43;50.99;43.94;62.08;;
186;Laerm;55473;48.800;9.002;2023-02-03T13:46:38;48.31;42.18;62.46;;
186;Laerm;55473;48.800;9.002;2023-02-03T13:49:07;50.16;42.51;62.97;;
186;Laerm;55473;48.800;9.002;2023-02-03T13:51:43;49.04;41.70;68.01;;
186;Laerm;55473;48.800;9.002;2023-02-03T13:54:36;46.73;42.27;59.60;;
186;Laerm;55473;48.800;9.002;2023-02-03T13:57:21;49.52;43.05;68.52;;
186;Laerm;55473;48.800;9.002;2023-02-03T13:59:47;49.92;44.05;64.33;;
186;Laerm;55473;48.800;9.002;2023-02-03T14:07:37;48.16;42.84;61.50;;
186;Laerm;55473;48.800;9.002;2023-02-03T14:12:59;47.51;42.95;63.45;;
186;Laerm;55473;48.800;9.002;2023-02-03T14:18:43;50.77;43.19;62.57;;
186;Laerm;55473;48.800;9.002;2023-02-03T14:21:22;49.34;42.85;61.44;;
186;Laerm;55473;48.800;9.002;2023-02-03T14:24:01;51.27;43.01;62.97;;
186;Laerm;55473;48.800;9.002;2023-02-03T14:26:39;49.77;42.42;64.46;;
186;Laerm;55473;48.800;9.002;2023-02-03T14:29:31;48.12;42.17;59.88;;
186;Laerm;55473;48.800;9.002;2023-02-03T14:32:06;49.84;43.07;69.44;;
186;Laerm;55473;48.800;9.002;2023-02-03T14:34:40;54.39;44.81;66.68;;
186;Laerm;55473;48.800;9.002;2023-02-03T14:37:27;51.35;43.67;70.04;;
186;Laerm;55473;48.800;9.002;2023-02-03T14:51:44;49.20;42.82;61.84;;
186;Laerm;55473;48.800;9.002;2023-02-03T15:05:44;50.42;43.76;59.33;;
186;Laerm;55473;48.800;9.002;2023-02-03T15:08:46;47.88;42.58;66.53;;
186;Laerm;55473;48.800;9.002;2023-02-03T15:13:44;47.87;42.70;57.74;;
186;Laerm;55473;48.800;9.002;2023-02-03T15:16:17;47.93;43.32;58.64;;
186;Laerm;55473;48.800;9.002;2023-02-03T15:18:44;53.83;44.70;68.43;;
186;Laerm;55473;48.800;9.002;2023-02-03T15:21:19;50.48;42.67;64.14;;
186;Laerm;55473;48.800;9.002;2023-02-03T15:23:47;48.30;44.05;61.37;;
186;Laerm;55473;48.800;9.002;2023-02-03T15:26:18;48.20;44.72;61.38;;
186;Laerm;55473;48.800;9.002;2023-02-03T15:29:03;49.88;43.24;62.77;;
186;Laerm;55473;48.800;9.002;2023-02-03T15:31:37;50.99;43.31;65.44;;
186;Laerm;55473;48.800;9.002;2023-02-03T15:34:27;51.15;42.76;72.19;;
186;Laerm;55473;48.800;9.002;2023-02-03T15:37:00;48.26;43.39;64.75;;
186;Laerm;55473;48.800;9.002;2023-02-03T15:45:16;48.57;43.87;57.99;;
186;Laerm;55473;48.800;9.002;2023-02-03T15:50:55;52.86;43.39;64.22;;
186;Laerm;55473;48.800;9.002;2023-02-03T15:53:47;47.68;42.81;57.90;;
186;Laerm;55473;48.800;9.002;2023-02-03T15:59:42;47.68;42.61;55.14;;
186;Laerm;55473;48.800;9.002;2023-02-03T16:02:29;49.09;42.11;68.68;;
186;Laerm;55473;48.800;9.002;2023-02-03T16:04:57;51.00;44.00;63.49;;
186;Laerm;55473;48.800;9.002;2023-02-03T16:07:29;49.78;42.99;62.57;;
186;Laerm;55473;48.800;9.002;2023-02-03T16:09:59;48.72;42.07;65.80;;
186;Laerm;55473;48.800;9.002;2023-02-03T16:12:32;46.59;43.03;54.28;;
186;Laerm;55473;48.800;9.002;2023-02-03T16:15:00;49.01;42.93;62.35;;
186;Laerm;55473;48.800;9.002;2023-02-03T16:17:35;49.38;42.71;60.08;;
186;Laerm;55473;48.800;9.002;2023-02-03T16:22:43;47.10;42.67;62.96;;
186;Laerm;55473;48.800;9.002;2023-02-03T16:25:27;47.42;42.78;61.39;;
186;Laerm;55473;48.800;9.002;2023-02-03T16:28:10;47.52;43.06;59.26;;
186;Laerm;55473;48.800;9.002;2023-02-03T16:31:13;48.59;43.09;60.97;;
186;Laerm;55473;48.800;9.002;2023-02-03T16:34:01;51.88;44.97;60.03;;
186;Laerm;55473;48.800;9.002;2023-02-03T16:36:46;46.95;42.85;62.16;;
186;Laerm;55473;48.800;9.002;2023-02-03T16:39:30;48.86;44.62;64.84;;
186;Laerm;55473;48.800;9.002;2023-02-03T16:42:19;49.37;44.64;65.01;;
186;Laerm;55473;48.800;9.002;2023-02-03T16:45:14;48.51;44.13;66.26;;
186;Laerm;55473;48.800;9.002;2023-02-03T16:47:59;49.30;43.57;60.01;;
186;Laerm;55473;48.800;9.002;2023-02-03T16:50:44;49.84;43.10;69.72;;
186;Laerm;55473;48.800;9.002;2023-02-03T16:53:31;47.81;42.81;64.43;;
186;Laerm;55473;48.800;9.002;2023-02-03T16:56:05;47.43;42.18;63.23;;
186;Laerm;55473;48.800;9.002;2023-02-03T16:58:36;55.21;41.92;67.13;;
186;Laerm;55473;48.800;9.002;2023-02-03T17:01:07;49.56;41.36;67.94;;
186;Laerm;55473;48.800;9.002;2023-02-03T17:03:36;50.48;43.31;59.69;;
186;Laerm;55473;48.800;9.002;2023-02-03T17:06:09;50.25;41.76;60.07;;
186;Laerm;55473;48.800;9.002;2023-02-03T17:08:39;46.71;41.76;57.74;;
186;Laerm;55473;48.800;9.002;2023-02-03T17:11:16;55.66;41.62;69.35;;
186;Laerm;55473;48.800;9.002;2023-02-03T17:13:43;45.67;41.58;55.22;;
186;Laerm;55473;48.800;9.002;2023-02-03T17:16:22;50.07;40.96;68.61;;
186;Laerm;55473;48.800;9.002;2023-02-03T17:18:48;49.32;41.27;69.45;;
186;Laerm;55473;48.800;9.002;2023-02-03T17:21:22;52.83;44.04;65.53;;
186;Laerm;55473;48.800;9.002;2023-02-03T17:23:49;46.18;41.80;55.47;;
186;Laerm;55473;48.800;9.002;2023-02-03T17:26:15;47.87;41.63;63.69;;
186;Laerm;55473;48.800;9.002;2023-02-03T17:28:42;47.47;42.41;60.16;;
186;Laerm;55473;48.800;9.002;2023-02-03T17:31:14;47.71;42.28;58.03;;
186;Laerm;55473;48.800;9.002;2023-02-03T17:33:40;47.66;40.82;64.19;;
186;Laerm;55473;48.800;9.002;2023-02-03T17:36:11;48.05;41.55;59.93;;